»·PEaware :: AWE231 KSNA-KSMF

AWE231 :: KSNA-KSMF

FLIGHT INFORMATION

Flight Status: Arrived
Operator:
US Airways
More flights by this operator :: More flights under this callsign
Pilot: Dave P. (45)
Aircraft: BOEING 737-700
(B737)
More flights by this aircraft type
Origin: KSNA John Wayne-Orange Co
United States
Destination: KSMF Sacramento Intl
United States
More flights between these airports :: More routes between these airports
Route: HHERO3 EHF NURAY SUUTR2
File this flight plan on PilotEdge
Remarks: RMK / SIMBRIEF
Altitude:
(Current/Filed)
36,000ft
Speed:
(Current/Filed)
457kts
Departed: 04-Aug-19 07:48 AM
Arrived: 04-Aug-19 08:57 AM
Distance/Time
Traveled:
351nm/1:09
Distance/Time
To Go:
Arrived

Flight Plot

Page will automatically refresh every two minutes.

Flight plan parsing failed; only flown route is shown


Map Options




Map Legend


Flown Route
Filed Route
Departure Airport
Arrival Airport
Navaid (VOR, NDB)
Fix

Horizontal Profiles

Position Reports

Time Latitude Longitude Heading Altitude Ground
Speed
04-Aug-19 07:15 33.676798 -117.863925 117 64ft 0kts
04-Aug-19 07:16 33.676798 -117.863925 117 64ft 0kts
04-Aug-19 07:18 33.676798 -117.863925 117 64ft 0kts
04-Aug-19 07:18 33.676798 -117.863925 117 64ft 0kts
04-Aug-19 07:20 33.676798 -117.863925 117 64ft 0kts
04-Aug-19 07:20 33.676798 -117.863925 117 64ft 0kts
04-Aug-19 07:21 33.676798 -117.863925 117 64ft 0kts
04-Aug-19 07:22 33.676798 -117.863925 117 64ft 0kts
04-Aug-19 07:23 33.676798 -117.863925 117 64ft 0kts
04-Aug-19 07:24 33.676798 -117.863925 117 64ft 0kts
04-Aug-19 07:25 33.676798 -117.863925 117 64ft 0kts
04-Aug-19 07:26 33.676798 -117.863925 117 64ft 0kts
04-Aug-19 07:27 33.676798 -117.863925 117 64ft 0kts
04-Aug-19 07:28 33.676798 -117.863925 117 64ft 0kts
04-Aug-19 07:29 33.676798 -117.863925 117 64ft 0kts
04-Aug-19 07:30 33.676798 -117.863925 117 64ft 0kts
04-Aug-19 07:31 33.676798 -117.863925 117 64ft 0kts
04-Aug-19 07:32 33.676798 -117.863925 117 64ft 0kts
04-Aug-19 07:33 33.676798 -117.863925 117 64ft 0kts
04-Aug-19 07:34 33.676798 -117.863925 117 64ft 0kts
04-Aug-19 07:35 33.676798 -117.863925 117 64ft 0kts
04-Aug-19 07:36 33.676798 -117.863925 117 64ft 0kts
04-Aug-19 07:37 33.676798 -117.863925 117 64ft 0kts
04-Aug-19 07:38 33.676798 -117.863925 117 64ft 0kts
04-Aug-19 07:39 33.676798 -117.863925 117 64ft 0kts
04-Aug-19 07:40 33.677054 -117.864257 154 64ft 2kts
04-Aug-19 07:41 33.677275 -117.864321 177 64ft 0kts
04-Aug-19 07:42 33.677275 -117.864321 177 64ft 0kts
04-Aug-19 07:43 33.677274 -117.864321 177 64ft 0kts
04-Aug-19 07:44 33.677268 -117.864321 177 64ft 0kts
04-Aug-19 07:45 33.679512 -117.863077 27 64ft 19kts
04-Aug-19 07:46 33.681138 -117.864249 296 64ft 0kts
04-Aug-19 07:47 33.679972 -117.866157 207 64ft 50kts
04-Aug-19 07:48 33.646267 -117.886098 196 1996ft 151kts
04-Aug-19 07:49 33.594580 -117.895581 188 3707ft 231kts
04-Aug-19 07:50 33.534575 -117.940193 225 6787ft 274kts
04-Aug-19 07:51 33.479374 -118.006179 233 8033ft 285kts
04-Aug-19 07:52 33.437917 -118.088638 240 11251ft 302kts
04-Aug-19 07:53 33.417988 -118.193999 280 13366ft 355kts
04-Aug-19 07:54 33.444451 -118.309827 290 16561ft 369kts
04-Aug-19 07:55 33.492637 -118.421905 294 19441ft 385kts
04-Aug-19 07:56 33.584296 -118.486686 358 21914ft 428kts
04-Aug-19 07:57 33.703454 -118.462805 2 24022ft 444kts
04-Aug-19 07:58 33.827936 -118.458969 355 26030ft 452kts
04-Aug-19 07:59 33.955125 -118.459720 355 27834ft 461kts
04-Aug-19 08:00 34.083685 -118.470779 347 29373ft 465kts
04-Aug-19 08:01 34.212868 -118.491804 347 31040ft 466kts
04-Aug-19 08:02 34.340972 -118.511863 348 32807ft 462kts
04-Aug-19 08:03 34.467808 -118.531484 348 34417ft 457kts
04-Aug-19 08:04 34.594070 -118.551064 348 35707ft 456kts
04-Aug-19 08:05 34.720471 -118.570700 348 36105ft 458kts
04-Aug-19 08:06 34.846600 -118.590371 348 36119ft 456kts
04-Aug-19 08:07 34.972264 -118.610612 343 36095ft 454kts
04-Aug-19 08:08 35.078561 -118.683040 316 36083ft 438kts
04-Aug-19 08:09 35.172150 -118.778314 316 36047ft 437kts
04-Aug-19 08:10 35.265783 -118.873448 316 35981ft 437kts
04-Aug-19 08:11 35.359095 -118.968535 316 35922ft 436kts
04-Aug-19 08:12 35.452105 -119.063872 317 35891ft 436kts
04-Aug-19 08:13 35.558390 -119.137047 332 35892ft 443kts
04-Aug-19 08:14 35.671259 -119.197651 332 35892ft 442kts
04-Aug-19 08:15 35.783900 -119.258442 332 35890ft 441kts
04-Aug-19 08:16 35.896338 -119.319044 332 35898ft 440kts
04-Aug-19 08:17 36.008304 -119.379701 332 35905ft 440kts
04-Aug-19 08:18 36.121183 -119.441097 333 35908ft 442kts
04-Aug-19 08:19 36.233804 -119.502559 333 35905ft 442kts
04-Aug-19 08:20 36.346366 -119.564070 333 35908ft 442kts
04-Aug-19 08:21 36.458865 -119.625886 332 35910ft 442kts
04-Aug-19 08:22 36.571545 -119.688060 332 35911ft 443kts
04-Aug-19 08:23 36.677330 -119.764942 324 35909ft 440kts
04-Aug-19 08:24 36.781030 -119.846672 324 35909ft 441kts
04-Aug-19 08:25 36.885000 -119.928701 324 35913ft 442kts
04-Aug-19 08:26 36.989471 -120.010915 324 35914ft 444kts
04-Aug-19 08:27 37.092220 -120.092062 325 34126ft 432kts
04-Aug-19 08:28 37.193784 -120.172882 324 31101ft 431kts
04-Aug-19 08:29 37.293498 -120.252192 325 28786ft 423kts
04-Aug-19 08:30 37.393524 -120.332419 325 26162ft 422kts
04-Aug-19 08:31 37.488729 -120.411263 320 23864ft 391kts
04-Aug-19 08:32 37.571845 -120.495997 319 21643ft 377kts
04-Aug-19 08:33 37.652274 -120.576705 319 20150ft 368kts
04-Aug-19 08:34 37.732606 -120.657431 319 19005ft 367kts
04-Aug-19 08:35 37.811914 -120.737543 319 18826ft 365kts
04-Aug-19 08:36 37.891526 -120.817829 319 18826ft 365kts
04-Aug-19 08:37 37.970429 -120.898060 319 18822ft 364kts
04-Aug-19 08:38 38.049812 -120.979050 319 18822ft 366kts
04-Aug-19 08:39 38.119796 -121.070318 308 17698ft 345kts
04-Aug-19 08:40 38.178033 -121.156900 308 16211ft 304kts
04-Aug-19 08:41 38.233540 -121.236527 312 14756ft 302kts
04-Aug-19 08:42 38.292948 -121.310431 313 13292ft 295kts
04-Aug-19 08:43 38.350832 -121.383536 312 11860ft 292kts
04-Aug-19 08:44 38.407663 -121.455894 313 10473ft 284kts
04-Aug-19 08:45 38.462555 -121.525943 313 9116ft 276kts
04-Aug-19 08:46 38.520322 -121.588167 320 7602ft 268kts
04-Aug-19 08:47 38.578672 -121.646445 319 6490ft 266kts
04-Aug-19 08:48 38.640358 -121.685729 349 5240ft 239kts
04-Aug-19 08:49 38.705874 -121.693666 352 4031ft 234kts
04-Aug-19 08:50 38.771327 -121.692943 359 2674ft 235kts
04-Aug-19 08:51 38.813917 -121.657463 90 2003ft 191kts
04-Aug-19 08:52 38.805295 -121.595155 132 2010ft 176kts
04-Aug-19 08:53 38.761942 -121.579112 182 1091ft 147kts
04-Aug-19 08:54 38.725483 -121.579751 182 416ft 127kts
04-Aug-19 08:55 38.695816 -121.580259 180 36ft 55kts
04-Aug-19 08:56 38.689747 -121.582543 210 36ft 13kts
04-Aug-19 08:57 38.691781 -121.583000 334 36ft 6kts
04-Aug-19 08:58 38.692622 -121.585012 0 36ft 7kts
04-Aug-19 08:59 38.695264 -121.586197 1 36ft 16kts
04-Aug-19 09:00 38.696832 -121.589252 336 36ft 9kts
04-Aug-19 09:01 38.696358 -121.592430 180 36ft 6kts
04-Aug-19 09:02 38.696249 -121.592431 180 36ft 0kts
04-Aug-19 09:03 38.696249 -121.592431 180 36ft 0kts
04-Aug-19 09:04 38.696249 -121.592431 180 36ft 0kts

Navigation Log

Ident Type
Flight plan parsing failed, navigation log unavailable